Latest Weather Observations for Swan Hill

IDN60801

Issued at 7:35 am EDT Friday 21 November 2014 (issued every 30 minutes, with the page automatically refreshed every 10 minutes)

About weather observations | Map of weather stations | Latest weather observations for NSW | Other Formats
Station Details ID: 077094 Name: SWAN HILL AERODROME Lat: -35.38 Lon: 143.54 Height: 71.0 m
Data from the previous 72 hours. | See also: Recent months at Swan Hill
Date/Time
EDT
Temp
°C
App
Temp
°C
Dew
Point
Rel
Hum
%
Delta-T
°C
Wind Press
QNH
hPa
Press
MSL
hPa
Rain
since 9 am
mm
Dir
 
Spd
km/h
Gust
km/h
Spd
kts
Gust
kts
21/07:30am 16.7 13.6 11.6 72 2.8 WSW 19 28 10 15 1010.9 - 0.0
21/07:00am 16.3 14.1 12.1 76 2.3 WSW 15 19 8 10 1010.9 - 0.0
21/06:30am 16.0 13.4 12.0 77 2.2 SW 17 22 9 12 1010.6 - 0.0
21/06:00am 16.0 13.3 11.8 76 2.3 WSW 17 22 9 12 1010.4 1010.2 0.0
21/05:30am 16.0 12.4 11.8 76 2.3 WSW 22 32 12 17 1010.1 - 0.0
21/05:00am 16.0 12.4 12.0 77 2.2 WSW 22 28 12 15 1009.7 - 0.0
21/04:30am 15.6 12.3 11.7 77 2.1 WSW 20 28 11 15 1008.9 - 0.0
21/04:00am 16.3 13.0 12.7 79 2.0 WSW 22 30 12 16 1008.7 - 0.0
21/03:30am 16.4 11.2 12.8 79 2.0 WSW 32 39 17 21 1008.5 - 0.0
21/03:00am 17.5 14.1 13.8 79 2.1 WSW 24 33 13 18 1008.1 1007.9 0.0
21/02:30am 18.5 16.1 14.5 77 2.3 WSW 20 28 11 15 1007.9 - 0.0
21/02:00am 19.5 16.4 15.5 77 2.4 WSW 26 33 14 18 1007.8 - 0.0
21/01:30am 19.9 16.8 14.6 71 3.1 W 24 30 13 16 1007.7 - 0.0
21/01:00am 19.9 17.9 13.8 68 3.5 WNW 17 24 9 13 1007.4 - 0.0
21/12:30am 19.9 18.3 13.8 68 3.5 W 15 19 8 10 1007.3 - 0.0
21/12:00am 20.2 18.9 13.8 66 3.7 WNW 13 17 7 9 1007.4 1007.2 0.0
 
Date/Time
EDT
Temp
°C
App
Temp
°C
Dew
Point
Rel
Hum
%
Delta-T
°C
Wind Press
QNH
hPa
Press
MSL
hPa
Rain
since 9 am
mm
Dir
 
Spd
km/h
Gust
km/h
Spd
kts
Gust
kts
20/11:30pm 20.7 19.6 14.2 66 3.8 WNW 13 15 7 8 1007.7 - 0.0
20/11:00pm 21.4 20.0 14.4 64 4.1 WNW 15 17 8 9 1007.6 - 0.0
20/10:30pm 21.2 20.4 15.0 67 3.7 NNW 13 15 7 8 1007.8 - 0.0
20/10:00pm 21.8 21.0 14.1 61 4.5 N 11 15 6 8 1007.5 - 0.0
20/09:30pm 22.3 21.6 13.3 56 5.2 NNW 9 11 5 6 1007.6 - 0.0
20/09:00pm 22.6 21.7 12.5 53 5.8 NNW 9 11 5 6 1007.2 1007.0 0.0
20/08:30pm 23.7 22.1 11.7 47 6.8 W 11 17 6 9 1007.0 - 0.0
20/08:00pm 23.9 21.2 11.8 46 6.9 NW 17 22 9 12 1007.1 - 0.0
20/07:30pm 24.5 19.6 11.2 43 7.5 WNW 28 35 15 19 1007.8 - 0.0
20/07:00pm 24.2 19.3 12.6 48 6.7 W 30 41 16 22 1008.1 - 0.0
20/06:30pm 24.7 18.3 11.9 44 7.3 W 37 52 20 28 1008.1 - 0.0
20/06:00pm 25.6 19.5 11.8 42 7.9 W 35 46 19 25 1008.0 1007.8 0.0
20/05:30pm 26.0 19.9 11.9 41 8.1 SW 35 46 19 25 1007.7 - 0.0
20/05:00pm 26.7 20.5 11.5 38 8.7 SW 35 50 19 27 1006.9 - 0.0
20/04:38pm 27.1 20.4 10.9 36 9.2 WSW 37 56 20 30 1007.3 - 0.0
20/04:30pm 27.5 20.0 11.0 35 9.4 WSW 41 57 22 31 1007.3 - 0.0
20/04:00pm 29.4 21.9 8.1 26 11.7 WSW 37 48 20 26 1006.6 - 0.0
20/03:30pm 30.6 24.6 3.1 17 13.9 WSW 24 35 13 19 1006.1 - 0.0
20/03:00pm 29.9 24.4 4.1 19 13.3 SSW 22 33 12 18 1006.2 1006.1 0.0
20/02:30pm 29.8 21.7 3.1 18 13.5 SW 35 48 19 26 1006.4 - 0.0
20/02:00pm 31.4 21.5 -0.8 12 15.4 WSW 41 50 22 27 1006.3 - 0.0
20/01:59pm 31.5 21.6 -1.0 12 15.5 WSW 41 50 22 27 1006.3 - 0.0
20/01:50pm 31.9 20.8 -2.8 10 16.1 W 46 57 25 31 1006.3 - 0.0
20/01:35pm 33.0 23.4 -4.7 8 17.0 WNW 37 57 20 31 1006.0 - 0.0
20/01:30pm 33.0 23.1 -3.6 9 16.8 NW 39 48 21 26 1006.1 - 0.0
20/01:00pm 32.7 25.8 0.4 12 15.9 NW 26 35 14 19 1006.3 - 0.0
20/12:30pm 32.1 24.5 0.6 13 15.5 NW 30 44 16 24 1006.6 - 0.0
20/12:00pm 32.2 24.1 0.9 13 15.5 NW 33 46 18 25 1006.8 1006.6 0.0
20/11:30am 32.6 24.6 0.6 13 15.8 NNW 32 41 17 22 1007.2 - 0.0
20/11:00am 32.9 24.5 -0.9 11 16.3 NNW 33 44 18 24 1007.4 - 0.0
20/10:30am 32.5 24.2 -1.5 11 16.2 NNW 32 39 17 21 1007.8 - 0.0
20/10:00am 31.2 22.8 -2.3 11 15.6 N 32 43 17 23 1008.1 - 0.0
20/09:30am 29.8 21.8 -2.4 12 14.8 N 30 41 16 22 1008.1 - 0.0
20/09:00am 28.7 22.3 -2.0 13 14.1 N 22 30 12 16 1008.3 1008.1 0.0
20/08:30am 25.0 19.0 -1.4 17 11.9 N 20 26 11 14 1008.6 - 0.0
20/08:00am 23.6 17.7 -2.1 18 11.3 N 19 24 10 13 1008.7 - 0.0
20/07:30am 22.8 16.8 -2.7 18 11.0 N 19 24 10 13 1008.7 - 0.0
20/07:00am 22.1 16.1 -3.0 18 10.7 N 19 24 10 13 1008.7 - 0.0
20/06:30am 21.8 16.7 -1.9 20 10.3 NNE 15 20 8 11 1008.7 - 0.0
20/06:00am 20.5 15.6 -0.6 24 9.3 NNE 15 19 8 10 1008.5 1008.3 0.0
20/05:30am 20.5 14.5 -1.4 23 9.5 NNE 20 26 11 14 1008.7 - 0.0
20/05:00am 20.0 14.3 -0.8 24 9.1 NNE 19 24 10 13 1008.8 - 0.0
20/04:30am 19.7 14.9 0.1 27 8.7 NNE 15 20 8 11 1009.1 - 0.0
20/04:00am 18.8 14.8 2.6 34 7.5 NE 13 15 7 8 1009.1 - 0.0
20/03:30am 19.9 15.4 1.9 30 8.3 NE 15 19 8 10 1009.1 - 0.0
20/03:00am 19.7 15.3 2.5 32 8.0 NE 15 19 8 10 1009.1 1008.9 0.0
20/02:30am 19.4 16.2 3.0 33 7.7 NNE 9 15 5 8 1009.7 - 0.0
20/02:00am 18.9 15.0 3.4 35 7.3 NE 13 15 7 8 1009.9 - 0.0
20/01:30am 19.1 15.3 3.7 36 7.3 NE 13 13 7 7 1010.3 - 0.0
20/01:00am 19.5 14.8 3.1 33 7.7 NE 17 17 9 9 1010.4 - 0.0
20/12:30am 19.8 15.5 3.3 33 7.8 NE 15 19 8 10 1010.9 - 0.0
20/12:00am 19.8 15.7 4.2 35 7.5 NE 15 15 8 8 1011.1 1010.9 0.0
 
Date/Time
EDT
Temp
°C
App
Temp
°C
Dew
Point
Rel
Hum
%
Delta-T
°C
Wind Press
QNH
hPa
Press
MSL
hPa
Rain
since 9 am
mm
Dir
 
Spd
km/h
Gust
km/h
Spd
kts
Gust
kts
19/11:30pm 20.4 16.6 4.0 34 7.9 NE 13 15 7 8 1011.3 - 0.0
19/11:00pm 21.1 17.7 3.9 32 8.3 NE 11 13 6 7 1011.6 - 0.0
19/10:30pm 21.6 17.9 4.2 32 8.5 NNE 13 13 7 7 1011.6 - 0.0
19/10:00pm 22.0 18.7 4.8 32 8.5 NNE 11 13 6 7 1011.8 - 0.0
19/09:30pm 22.2 19.0 4.9 32 8.6 N 11 15 6 8 1011.6 - 0.0
19/09:00pm 22.8 19.8 6.1 34 8.5 N 11 11 6 6 1011.5 1011.3 0.0
19/08:30pm 24.4 21.2 5.0 28 9.8 N 11 11 6 6 1011.7 - 0.0
19/08:00pm 26.6 23.4 2.8 21 11.7 N 9 13 5 7 1011.8 - 0.0
19/07:30pm 28.5 24.4 0.1 16 13.5 N 11 13 6 7 1011.8 - 0.0
19/07:00pm 29.9 24.9 -1.2 13 14.6 N 15 19 8 10 1011.7 - 0.0
19/06:30pm 30.5 25.5 -1.0 13 14.9 NW 15 22 8 12 1011.7 - 0.0
19/06:00pm 30.1 25.3 -2.6 12 15.0 N 13 22 7 12 1012.0 1011.7 0.0
19/05:30pm 29.7 24.6 -1.8 13 14.6 N 15 26 8 14 1012.3 - 0.0
19/05:00pm 30.4 24.9 -2.3 12 15.1 WNW 17 24 9 13 1012.8 - 0.0
19/04:30pm 29.7 24.2 -1.8 13 14.6 N 17 26 9 14 1013.2 - 0.0
19/04:00pm 29.0 23.1 -2.3 13 14.3 N 19 32 10 17 1013.6 - 0.0
19/03:30pm 29.4 23.3 -2.7 12 14.6 NNW 20 28 11 15 1014.1 - 0.0
19/03:00pm 29.2 24.4 -2.3 13 14.4 N 13 26 7 14 1014.8 1014.6 0.0
19/02:30pm 28.4 23.7 -2.1 13 13.9 NNW 13 24 7 13 1015.2 - 0.0
19/02:00pm 27.8 23.7 -0.5 16 13.2 NNW 11 22 6 12 1015.9 - 0.0
19/01:30pm 28.6 25.0 0.6 16 13.4 NE 9 20 5 11 1015.9 - 0.0
19/01:00pm 27.2 22.0 -0.2 16 12.8 N 17 22 9 12 1016.6 - 0.0
19/12:30pm 26.3 22.9 1.7 20 11.8 NE 9 17 5 9 1017.3 - 0.0
19/12:00pm 26.2 22.9 2.6 21 11.5 NE 9 20 5 11 1017.7 1017.5 0.0
19/11:30am 25.1 22.0 3.6 25 10.6 N 9 17 5 9 1018.1 - 0.0
19/11:00am 24.5 20.7 4.1 26 10.1 N 13 20 7 11 1018.4 - 0.0
19/10:30am 23.4 20.4 5.9 32 8.9 NNE 11 17 6 9 1019.0 - 0.0
19/10:00am 21.7 18.6 7.1 39 7.5 NNE 13 19 7 10 1019.2 - 0.0
19/09:30am 19.9 17.4 8.4 47 6.0 E 11 17 6 9 1019.4 - 0.0
19/09:00am 18.1 15.4 8.9 55 4.8 E 13 19 7 10 1019.7 1019.5 0.0
19/08:30am 16.5 14.7 9.4 63 3.7 E 9 13 5 7 1019.7 - 0.0
19/08:00am 14.9 12.4 8.3 64 3.3 E 11 17 6 9 1019.6 - 0.0
19/07:30am 13.6 12.1 9.3 75 2.2 SE 7 9 4 5 1019.3 - 0.0
19/07:00am 11.8 9.8 8.6 81 1.6 SE 9 9 5 5 1019.1 - 0.0
19/06:30am 10.1 8.4 8.2 88 0.9 SE 7 9 4 5 1019.0 - 0.0
19/06:00am 9.4 7.5 7.7 89 0.8 SE 7 11 4 6 1018.3 1018.2 0.0
19/05:30am 10.2 8.4 8.1 87 1.0 SE 7 9 4 5 1018.2 - 0.0
19/05:00am 11.0 9.4 8.6 85 1.2 SE 7 9 4 5 1018.4 - 0.0
19/04:30am 12.4 10.4 8.6 77 1.9 ESE 9 13 5 7 1018.4 - 0.0
19/04:00am 12.9 10.9 8.7 75 2.1 ESE 9 15 5 8 1018.3 - 0.0
19/03:30am 13.2 10.9 9.0 75 2.1 SE 11 15 6 8 1018.5 - 0.0
19/03:00am 12.7 10.1 7.8 72 2.4 SE 11 15 6 8 1018.5 1018.4 0.0
19/02:30am 13.2 10.4 7.0 66 3.0 SSE 11 15 6 8 1018.7 - 0.0
19/02:00am 13.9 11.4 6.4 60 3.6 SSW 9 13 5 7 1019.0 - 0.0
19/01:30am 13.5 11.5 7.1 65 3.1 SSW 7 9 4 5 1019.3 - 0.0
19/01:00am 12.8 12.1 7.0 68 2.8 CALM 0 0 0 0 1019.6 - 0.0
19/12:30am 13.2 12.5 7.0 66 3.0 CALM 0 0 0 0 1019.7 - 0.0
19/12:00am 13.8 13.1 7.0 63 3.3 CALM 0 0 0 0 1019.7 1019.6 0.0
 
Date/Time
EDT
Temp
°C
App
Temp
°C
Dew
Point
Rel
Hum
%
Delta-T
°C
Wind Press
QNH
hPa
Press
MSL
hPa
Rain
since 9 am
mm
Dir
 
Spd
km/h
Gust
km/h
Spd
kts
Gust
kts
18/11:30pm 14.8 14.1 7.0 59 3.8 CALM 0 0 0 0 1019.9 - 0.0
18/11:00pm 14.9 14.3 7.2 60 3.8 CALM 0 0 0 0 1020.1 - 0.0
18/10:30pm 15.9 15.0 6.0 52 4.8 CALM 0 0 0 0 1020.1 - 0.0
18/10:00pm 16.4 15.5 6.1 50 5.0 CALM 0 0 0 0 1020.0 - 0.0
18/09:30pm 17.3 16.2 5.2 45 5.8 CALM 0 0 0 0 1019.7 - 0.0
18/09:00pm 19.2 17.1 5.8 41 6.6 SSW 6 9 3 5 1019.4 1019.2 0.0
18/08:30pm 21.2 18.3 2.7 29 8.7 SSW 7 9 4 5 1019.4 - 0.0
18/08:00pm 22.8 19.7 1.6 24 9.9 SW 7 11 4 6 1019.0 - 0.0
18/07:30pm 23.9 19.8 -0.4 20 11.0 SW 11 17 6 9 1018.9 - 0.0
18/07:00pm 24.3 19.8 -0.3 19 11.2 SSW 13 19 7 10 1018.4 - 0.0
18/06:30pm 24.4 20.1 -1.3 18 11.5 SSW 11 19 6 10 1018.2 - 0.0
18/06:00pm 24.3 19.6 -2.0 17 11.6 SW 13 24 7 13 1018.2 1018.1 0.0
18/05:30pm 24.7 20.4 -1.5 17 11.7 S 11 24 6 13 1018.3 - 0.0
18/05:00pm 24.3 20.2 0.1 20 11.1 S 11 20 6 11 1018.3 - 0.0
18/04:30pm 24.3 19.7 -1.1 18 11.4 SSW 13 35 7 19 1018.5 - 0.0
18/04:00pm 24.2 20.4 -0.9 19 11.3 W 9 17 5 9 1018.7 - 0.0
18/03:30pm 23.3 18.1 -0.1 21 10.6 SW 17 24 9 13 1019.2 - 0.0
18/03:00pm 23.1 18.7 0.3 22 10.4 SW 13 22 7 12 1019.6 1019.4 0.0
18/02:30pm 23.0 19.6 1.6 24 10.0 S 9 19 5 10 1019.9 - 0.0
18/02:00pm 22.2 18.4 1.5 25 9.6 W 11 17 6 9 1020.3 - 0.0
18/01:30pm 21.9 18.0 0.9 25 9.6 S 11 20 6 11 1020.3 - 0.0
18/01:00pm 21.0 16.8 1.7 28 8.9 SW 13 20 7 11 1020.8 - 0.0
18/12:30pm 20.4 16.7 2.6 30 8.3 SW 11 20 6 11 1021.1 - 0.0
18/12:00pm 19.5 16.4 3.6 35 7.5 SSE 9 19 5 10 1021.4 1021.2 0.0
18/11:30am 18.9 15.9 3.9 37 7.1 SSW 9 15 5 8 1021.6 - 0.0
18/11:00am 17.7 13.9 4.1 40 6.4 S 13 22 7 12 1021.7 - 0.0
18/10:30am 17.1 13.5 4.9 44 5.8 SSW 13 20 7 11 1021.8 - 0.0
18/10:00am 16.4 12.8 4.8 46 5.5 S 13 22 7 12 1021.8 - 0.0
18/09:30am 16.0 12.0 5.0 48 5.2 SSE 15 24 8 13 1021.8 - 0.0
18/09:00am 15.2 11.3 5.3 51 4.7 SSE 15 20 8 11 1021.7 1021.6 0.0
18/08:30am 14.0 9.7 5.3 55 4.1 SSE 17 24 9 13 1021.5 - 0.0
18/08:00am 13.4 9.1 5.3 58 3.8 SSE 17 26 9 14 1020.9 - 0.0

Other Formats:

Comma delimited format used in spreadsheet applications
http://www.bom.gov.au/fwo/IDN60801/IDN60801.94843.axf

JavaScript Object Notation format (JSON) in row-major order
http://www.bom.gov.au/fwo/IDN60801/IDN60801.94843.json